»·PEaware :: N343GE KSNA-KSNA

N343GE :: KSNA-KSNA

FLIGHT INFORMATION

Flight Status: Arrived
Operator: Privately registered:
United States
More flights under this callsign
Pilot: Hyatt B. (30410)
Aircraft: CESSNA 172 SKYHAWK
(C172)
More flights by this aircraft type
Origin: KSNA John Wayne-Orange Co
United States
Destination: KSNA John Wayne-Orange Co
United States
More flights between these airports :: More routes between these airports
Route: SLI
File this flight plan on PilotEdge
Remarks:
Altitude:
(Current/Filed)
3,000ft
Speed:
(Current/Filed)
110kts
Departed: 24-Jul-20 10:01 AM
Arrived: 24-Jul-20 10:24 AM
Distance/Time
Traveled:
0nm/0:23
Distance/Time
To Go:
Arrived

Flight Plot

Page will automatically refresh every two minutes.


Map Options




Map Legend


Flown Route
Filed Route
Departure Airport
Arrival Airport
Navaid (VOR, NDB)
Fix

Horizontal Profiles

Position Reports

Time Latitude Longitude Heading Altitude Ground
Speed
24-Jul-20 09:43 33.670895 -117.867573 32 53ft 0kts
24-Jul-20 09:44 33.670895 -117.867573 32 53ft 0kts
24-Jul-20 09:45 33.670895 -117.867573 32 53ft 0kts
24-Jul-20 09:46 33.670895 -117.867573 32 53ft 0kts
24-Jul-20 09:47 33.670895 -117.867573 32 53ft 0kts
24-Jul-20 09:48 33.670895 -117.867573 32 53ft 0kts
24-Jul-20 09:49 33.670895 -117.867573 32 53ft 0kts
24-Jul-20 09:50 33.670895 -117.867573 32 53ft 0kts
24-Jul-20 09:51 33.670895 -117.867573 32 53ft 0kts
24-Jul-20 09:52 33.670895 -117.867573 32 53ft 0kts
24-Jul-20 09:53 33.671543 -117.868259 316 53ft 3kts
24-Jul-20 09:54 33.673209 -117.867140 44 51ft 5kts
24-Jul-20 09:55 33.675113 -117.866453 27 48ft 4kts
24-Jul-20 09:56 33.676423 -117.865616 25 45ft 7kts
24-Jul-20 09:57 33.678305 -117.864461 28 42ft 6kts
24-Jul-20 09:58 33.679830 -117.863497 17 40ft 0kts
24-Jul-20 09:59 33.679963 -117.863601 291 40ft 0kts
24-Jul-20 10:00 33.673760 -117.868184 205 143ft 81kts
24-Jul-20 10:01 33.655575 -117.886030 231 1007ft 90kts
24-Jul-20 10:02 33.640527 -117.909901 231 1755ft 90kts
24-Jul-20 10:03 33.623832 -117.936398 231 2000ft 107kts
24-Jul-20 10:04 33.631295 -117.959688 14 2201ft 101kts
24-Jul-20 10:05 33.657532 -117.948790 21 2863ft 100kts
24-Jul-20 10:06 33.686123 -117.936574 21 3000ft 113kts
24-Jul-20 10:07 33.715946 -117.923866 21 2999ft 113kts
24-Jul-20 10:08 33.745368 -117.911462 21 2999ft 111kts
24-Jul-20 10:09 33.774362 -117.899344 21 2999ft 109kts
24-Jul-20 10:10 33.802876 -117.887315 21 2997ft 108kts
24-Jul-20 10:11 33.831115 -117.875172 21 2995ft 107kts
24-Jul-20 10:12 33.859190 -117.862814 21 2994ft 107kts
24-Jul-20 10:13 33.883837 -117.845675 79 2988ft 106kts
24-Jul-20 10:14 33.874054 -117.812270 111 2994ft 107kts
24-Jul-20 10:15 33.862142 -117.779298 111 2997ft 107kts
24-Jul-20 10:16 33.837084 -117.766477 181 2998ft 112kts
24-Jul-20 10:17 33.809144 -117.783836 206 2837ft 114kts
24-Jul-20 10:18 33.782370 -117.801082 205 2291ft 105kts
24-Jul-20 10:19 33.756028 -117.817827 204 1721ft 108kts
24-Jul-20 10:20 33.729913 -117.834420 204 1142ft 104kts
24-Jul-20 10:21 33.706859 -117.849075 203 633ft 75kts
24-Jul-20 10:22 33.688745 -117.860536 203 241ft 78kts
24-Jul-20 10:23 33.674221 -117.869867 238 52ft 16kts
24-Jul-20 10:24 33.674240 -117.870837 289 53ft 0kts
24-Jul-20 10:25 33.674054 -117.871420 207 53ft 5kts
24-Jul-20 10:26 33.673215 -117.872673 221 53ft 0kts
24-Jul-20 10:27 33.673215 -117.872673 221 53ft 0kts
24-Jul-20 10:28 33.673215 -117.872673 221 53ft 0kts
24-Jul-20 10:29 33.673215 -117.872673 221 53ft 0kts
24-Jul-20 10:30 33.673215 -117.872673 221 53ft 0kts
24-Jul-20 10:31 33.673215 -117.872673 221 53ft 0kts
24-Jul-20 10:32 33.673215 -117.872673 221 53ft 0kts
24-Jul-20 10:33 33.673215 -117.872673 221 53ft 0kts
24-Jul-20 10:34 33.673215 -117.872673 221 53ft 0kts
24-Jul-20 10:35 33.673215 -117.872673 221 53ft 0kts
24-Jul-20 10:36 33.673215 -117.872673 221 53ft 0kts
24-Jul-20 10:37 33.673215 -117.872673 221 53ft 0kts

Navigation Log

Ident Type
Flight plan parsing failed, navigation log unavailable